Language: 


Des rapports , des résumés tant et plus, au choix de chacun....


Données Historiques de Météogheer
Journalier Rapport pour Février 15, 2018 Unitée:  Les deux    Impériale   Métrique
Suivant Jour »
Journalier Hebdomadaire Mensuel Annuel Sur mesure
  Max: Min: Moyenne:
Température: 55.6 °F /  13.1 °C 36.9 °F /  2.7 °C 44.2 °F /  6.8 °C
Point de rosée: 53.6 °F /  12.0 °C 35.6 °F /  2.0 °C 41.5 °F /  5.3 °C
Humidité: 98% 63% 89%
Vent: 15.7mph /  25.3km/h - 5.7mph /  9.1km/h
Rafales: 20.6mph /  33.1km/h - -
Vent- - SW
Pression: 30.1 in /  1018.8 hPa 29.6 in /  1003.9 hPa -
Pluie: 0.05 in /  1.3 mm    
Historical Graphs
 
 
Données tabulaires pour Février 15, 2018
Heure Température Point de rosée Pression Vent Vent Rafales Humidité Pluie Taux (Horaire) Conditions
00:01 39 °F /  3.9 °C 37.4 °F /  3.0 °C 29.7in /  1006.0hPa SSW 12.5mph /  20.1km/h 14.8mph /  23.8km/h 95% 0.05in /  1.3mm
00:06 38.8 °F /  3.8 °C 37.4 °F /  3.0 °C 29.7in /  1006.0hPa South 8.5mph /  13.7km/h 12.5mph /  20.1km/h 95% 0.03in /  0.8mm
00:11 38.8 °F /  3.8 °C 37.4 °F /  3.0 °C 29.7in /  1006.0hPa SSE 8.1mph /  13.0km/h 19.5mph /  31.4km/h 96% 0.03in /  0.8mm
00:16 38.8 °F /  3.8 °C 37.4 °F /  3.0 °C 29.7in /  1006.0hPa SSW 9.6mph /  15.4km/h 19.5mph /  31.4km/h 96% 0.03in /  0.8mm
00:21 38.8 °F /  3.8 °C 37.4 °F /  3.0 °C 29.7in /  1006.0hPa SSE 11mph /  17.7km/h 14.5mph /  23.3km/h 96% 0.03in /  0.8mm
00:26 38.8 °F /  3.8 °C 37.4 °F /  3.0 °C 29.7in /  1006.0hPa SSE 10.5mph /  16.9km/h 14.5mph /  23.3km/h 96% 0.02in /  0.5mm
00:31 38.8 °F /  3.8 °C 37.4 °F /  3.0 °C 29.7in /  1006.0hPa SSE 5.8mph /  9.3km/h 13.9mph /  22.4km/h 96% 0.02in /  0.5mm
00:36 38.8 °F /  3.8 °C 37.4 °F /  3.0 °C 29.7in /  1006.0hPa South 5.6mph /  9.0km/h 13.9mph /  22.4km/h 96% 0.02in /  0.5mm
00:41 38.8 °F /  3.8 °C 37.4 °F /  3.0 °C 29.7in /  1006.0hPa South 5.6mph /  9.0km/h 14.3mph /  23.0km/h 96% 0.01in /  0.3mm
00:46 38.7 °F /  3.7 °C 37.4 °F /  3.0 °C 29.7in /  1005.0hPa SSE 11mph /  17.7km/h 14.3mph /  23.0km/h 96% 0.01in /  0.3mm
00:51 38.7 °F /  3.7 °C 37.4 °F /  3.0 °C 29.7in /  1005.0hPa South 6.9mph /  11.1km/h 15.2mph /  24.5km/h 97% 0.01in /  0.3mm
00:56 38.7 °F /  3.7 °C 37.4 °F /  3.0 °C 29.7in /  1005.0hPa SSE 10.7mph /  17.2km/h 17mph /  27.4km/h 97% 0in /  0.0mm
01:01 38.7 °F /  3.7 °C 37.4 °F /  3.0 °C 29.7in /  1006.0hPa SSE 7.4mph /  11.9km/h 17mph /  27.4km/h 97% 0in /  0.0mm
01:06 38.7 °F /  3.7 °C 37.4 °F /  3.0 °C 29.7in /  1006.0hPa South 7.2mph /  11.6km/h 10.7mph /  17.2km/h 97% 0in /  0.0mm
01:11 38.7 °F /  3.7 °C 39.2 °F /  4.0 °C 29.7in /  1006.0hPa South 14.5mph /  23.3km/h 14.5mph /  23.3km/h 98% 0in /  0.0mm
01:16 38.8 °F /  3.8 °C 39.2 °F /  4.0 °C 29.7in /  1006.0hPa South 9.8mph /  15.8km/h 14.5mph /  23.3km/h 98% 0in /  0.0mm
01:21 38.8 °F /  3.8 °C 39.2 °F /  4.0 °C 29.7in /  1006.0hPa South 12.1mph /  19.5km/h 14.5mph /  23.3km/h 98% 0in /  0.0mm
01:26 38.8 °F /  3.8 °C 39.2 °F /  4.0 °C 29.7in /  1006.0hPa South 12.1mph /  19.5km/h 12.5mph /  20.1km/h 98% 0in /  0.0mm
01:31 38.8 °F /  3.8 °C 39.2 °F /  4.0 °C 29.7in /  1005.0hPa SSW 14.5mph /  23.3km/h 14.5mph /  23.3km/h 98% 0.01in /  0.3mm
01:36 38.8 °F /  3.8 °C 39.2 °F /  4.0 °C 29.7in /  1005.0hPa SSW 14.5mph /  23.3km/h 14.5mph /  23.3km/h 98% 0.01in /  0.3mm
01:41 38.8 °F /  3.8 °C 39.2 °F /  4.0 °C 29.7in /  1005.0hPa South 10.5mph /  16.9km/h 14.5mph /  23.3km/h 98% 0.01in /  0.3mm
01:46 38.8 °F /  3.8 °C 39.2 °F /  4.0 °C 29.6in /  1003.9hPa South 10.5mph /  16.9km/h 14.5mph /  23.3km/h 98% 0.01in /  0.3mm
01:51 38.8 °F /  3.8 °C 39.2 °F /  4.0 °C 29.6in /  1003.9hPa South 10.5mph /  16.9km/h 10.5mph /  16.9km/h 98% 0.01in /  0.3mm
01:56 38.8 °F /  3.8 °C 39.2 °F /  4.0 °C 29.6in /  1003.9hPa SSW 7.2mph /  11.6km/h 10.5mph /  16.9km/h 98% 0.01in /  0.3mm
02:01 38.8 °F /  3.8 °C 39.2 °F /  4.0 °C 29.7in /  1005.0hPa SSW 7.2mph /  11.6km/h 10.5mph /  16.9km/h 98% 0.01in /  0.3mm
02:06 38.8 °F /  3.8 °C 39.2 °F /  4.0 °C 29.7in /  1005.0hPa South 10.1mph /  16.3km/h 10.1mph /  16.3km/h 98% 0.01in /  0.3mm
02:11 38.8 °F /  3.8 °C 39.2 °F /  4.0 °C 29.7in /  1005.0hPa SSE 7.8mph /  12.6km/h 17mph /  27.4km/h 98% 0.01in /  0.3mm
02:16 38.8 °F /  3.8 °C 39.2 °F /  4.0 °C 29.7in /  1005.0hPa SSW 9.6mph /  15.4km/h 17mph /  27.4km/h 98% 0.01in /  0.3mm
02:21 38.8 °F /  3.8 °C 39.2 °F /  4.0 °C 29.7in /  1005.0hPa SSE 7.6mph /  12.2km/h 11.2mph /  18.0km/h 98% 0.01in /  0.3mm
02:26 38.8 °F /  3.8 °C 39.2 °F /  4.0 °C 29.7in /  1005.0hPa South 13mph /  20.9km/h 13mph /  20.9km/h 98% 0.01in /  0.3mm
02:32 38.8 °F /  3.8 °C 39.2 °F /  4.0 °C 29.7in /  1005.0hPa South 6.5mph /  10.5km/h 13mph /  20.9km/h 98% 0.01in /  0.3mm
02:37 39 °F /  3.9 °C 39.2 °F /  4.0 °C 29.7in /  1005.0hPa SSE 9.2mph /  14.8km/h 13mph /  20.9km/h 98% 0.01in /  0.3mm
02:42 39 °F /  3.9 °C 39.2 °F /  4.0 °C 29.7in /  1005.0hPa South 11mph /  17.7km/h 11mph /  17.7km/h 98% 0.01in /  0.3mm
02:47 39 °F /  3.9 °C 39.2 °F /  4.0 °C 29.7in /  1005.0hPa SSW 8.7mph /  14.0km/h 11mph /  17.7km/h 98% 0.01in /  0.3mm
02:52 39.2 °F /  4.0 °C 39.2 °F /  4.0 °C 29.7in /  1005.0hPa South 6mph /  9.7km/h 11mph /  17.7km/h 98% 0.01in /  0.3mm
02:57 39.2 °F /  4.0 °C 39.2 °F /  4.0 °C 29.7in /  1005.0hPa South 12.5mph /  20.1km/h 12.5mph /  20.1km/h 98% 0.01in /  0.3mm
03:02 39.2 °F /  4.0 °C 39.2 °F /  4.0 °C 29.7in /  1005.0hPa South 8.5mph /  13.7km/h 12.5mph /  20.1km/h 98% 0.01in /  0.3mm
03:07 39.2 °F /  4.0 °C 39.2 °F /  4.0 °C 29.7in /  1005.0hPa SSW 7.6mph /  12.2km/h 14.8mph /  23.8km/h 98% 0.01in /  0.3mm
03:12 39.4 °F /  4.1 °C 39.2 °F /  4.0 °C 29.7in /  1005.0hPa SSW 5.4mph /  8.7km/h 14.8mph /  23.8km/h 98% 0.01in /  0.3mm
03:17 39.4 °F /  4.1 °C 39.2 °F /  4.0 °C 29.6in /  1003.9hPa SSW 7.8mph /  12.6km/h 8.1mph /  13.0km/h 98% 0.01in /  0.3mm
03:22 39.4 °F /  4.1 °C 39.2 °F /  4.0 °C 29.6in /  1003.9hPa SSW 13.6mph /  21.9km/h 13.6mph /  21.9km/h 98% 0.01in /  0.3mm
03:27 39.4 °F /  4.1 °C 39.2 °F /  4.0 °C 29.6in /  1003.9hPa SSW 6mph /  9.7km/h 13.6mph /  21.9km/h 98% 0in /  0.0mm
03:32 39.4 °F /  4.1 °C 39.2 °F /  4.0 °C 29.7in /  1005.0hPa South 14.1mph /  22.7km/h 15.4mph /  24.8km/h 98% 0in /  0.0mm
03:37 39.6 °F /  4.2 °C 39.2 °F /  4.0 °C 29.7in /  1005.0hPa SSW 13mph /  20.9km/h 15.4mph /  24.8km/h 98% 0in /  0.0mm
03:42 39.6 °F /  4.2 °C 39.2 °F /  4.0 °C 29.7in /  1005.0hPa South 8.7mph /  14.0km/h 14.5mph /  23.3km/h 98% 0in /  0.0mm
03:47 39.6 °F /  4.2 °C 39.2 °F /  4.0 °C 29.7in /  1005.0hPa SSW 7.8mph /  12.6km/h 14.3mph /  23.0km/h 98% 0in /  0.0mm
03:52 39.6 °F /  4.2 °C 39.2 °F /  4.0 °C 29.7in /  1005.0hPa South 8.7mph /  14.0km/h 14.3mph /  23.0km/h 98% 0in /  0.0mm
03:57 39.6 °F /  4.2 °C 39.2 °F /  4.0 °C 29.7in /  1005.0hPa South 12.3mph /  19.8km/h 12.3mph /  19.8km/h 98% 0in /  0.0mm
04:02 39.7 °F /  4.3 °C 39.2 °F /  4.0 °C 29.7in /  1005.0hPa South 6.7mph /  10.8km/h 12.3mph /  19.8km/h 98% 0in /  0.0mm
04:07 39.7 °F /  4.3 °C 39.2 °F /  4.0 °C 29.7in /  1005.0hPa SSW 7.4mph /  11.9km/h 12.3mph /  19.8km/h 98% 0in /  0.0mm
04:12 39.7 °F /  4.3 °C 39.2 °F /  4.0 °C 29.7in /  1005.0hPa South 6.3mph /  10.1km/h 7.8mph /  12.6km/h 98% 0in /  0.0mm
04:17 39.7 °F /  4.3 °C 39.2 °F /  4.0 °C 29.7in /  1005.0hPa SSW 3.6mph /  5.8km/h 8.7mph /  14.0km/h 98% 0in /  0.0mm
04:22 39.9 °F /  4.4 °C 39.2 °F /  4.0 °C 29.7in /  1005.0hPa SSW 3.6mph /  5.8km/h 8.7mph /  14.0km/h 98% 0in /  0.0mm
04:27 39.9 °F /  4.4 °C 39.2 °F /  4.0 °C 29.7in /  1005.0hPa South 4.3mph /  6.9km/h 10.3mph /  16.6km/h 98% 0in /  0.0mm
04:32 39.9 °F /  4.4 °C 39.2 °F /  4.0 °C 29.7in /  1005.0hPa SSW 9.6mph /  15.4km/h 12.3mph /  19.8km/h 98% 0in /  0.0mm
04:37 39.9 °F /  4.4 °C 39.2 °F /  4.0 °C 29.7in /  1005.0hPa South 6.3mph /  10.1km/h 12.3mph /  19.8km/h 98% 0in /  0.0mm
04:43 39.9 °F /  4.4 °C 39.2 °F /  4.0 °C 29.7in /  1005.0hPa SSW 5.4mph /  8.7km/h 9.6mph /  15.4km/h 98% 0in /  0.0mm
04:48 39.9 °F /  4.4 °C 39.2 °F /  4.0 °C 29.7in /  1005.0hPa SSE 6.5mph /  10.5km/h 8.7mph /  14.0km/h 98% 0.01in /  0.3mm
04:53 39.9 °F /  4.4 °C 39.2 °F /  4.0 °C 29.7in /  1005.0hPa South 7.8mph /  12.6km/h 8.7mph /  14.0km/h 98% 0.01in /  0.3mm
04:58 39.9 °F /  4.4 °C 39.2 °F /  4.0 °C 29.7in /  1005.0hPa South 8.1mph /  13.0km/h 8.1mph /  13.0km/h 98% 0.01in /  0.3mm
05:03 39.9 °F /  4.4 °C 39.2 °F /  4.0 °C 29.7in /  1005.0hPa SE 6.3mph /  10.1km/h 8.1mph /  13.0km/h 98% 0.01in /  0.3mm
05:08 40.1 °F /  4.5 °C 41 °F /  5.0 °C 29.7in /  1005.0hPa SSE 4.9mph /  7.9km/h 11mph /  17.7km/h 98% 0.01in /  0.3mm
05:13 40.1 °F /  4.5 °C 41 °F /  5.0 °C 29.7in /  1005.0hPa South 8.9mph /  14.3km/h 11mph /  17.7km/h 98% 0.01in /  0.3mm
05:18 40.3 °F /  4.6 °C 41 °F /  5.0 °C 29.7in /  1005.0hPa SSW 5.6mph /  9.0km/h 8.9mph /  14.3km/h 98% 0.01in /  0.3mm
05:23 40.3 °F /  4.6 °C 41 °F /  5.0 °C 29.7in /  1005.0hPa South 7.6mph /  12.2km/h 9.8mph /  15.8km/h 98% 0.01in /  0.3mm
05:28 40.3 °F /  4.6 °C 41 °F /  5.0 °C 29.7in /  1005.0hPa SSW 6.7mph /  10.8km/h 9.8mph /  15.8km/h 98% 0.01in /  0.3mm
05:33 40.3 °F /  4.6 °C 41 °F /  5.0 °C 29.7in /  1005.0hPa SSW 3.8mph /  6.1km/h 8.5mph /  13.7km/h 98% 0.01in /  0.3mm
05:38 40.5 °F /  4.7 °C 41 °F /  5.0 °C 29.7in /  1005.0hPa SSW 5.8mph /  9.3km/h 6.5mph /  10.5km/h 98% 0.01in /  0.3mm
05:43 40.5 °F /  4.7 °C 41 °F /  5.0 °C 29.7in /  1005.0hPa SSW 4.9mph /  7.9km/h 6.5mph /  10.5km/h 98% 0.01in /  0.3mm
05:48 40.5 °F /  4.7 °C 41 °F /  5.0 °C 29.7in /  1005.0hPa SSW 5.8mph /  9.3km/h 8.1mph /  13.0km/h 98% 0in /  0.0mm
05:53 40.6 °F /  4.8 °C 41 °F /  5.0 °C 29.7in /  1005.0hPa South 6.9mph /  11.1km/h 8.7mph /  14.0km/h 98% 0in /  0.0mm
05:58 40.5 °F /  4.7 °C 41 °F /  5.0 °C 29.7in /  1005.0hPa South 7.4mph /  11.9km/h 8.7mph /  14.0km/h 98% 0in /  0.0mm
06:03 40.6 °F /  4.8 °C 41 °F /  5.0 °C 29.7in /  1005.0hPa South 4mph /  6.4km/h 8.5mph /  13.7km/h 98% 0in /  0.0mm
06:08 40.6 °F /  4.8 °C 41 °F /  5.0 °C 29.7in /  1005.0hPa South 7.6mph /  12.2km/h 8.5mph /  13.7km/h 98% 0in /  0.0mm
06:13 40.6 °F /  4.8 °C 41 °F /  5.0 °C 29.7in /  1005.0hPa South 5.6mph /  9.0km/h 7.6mph /  12.2km/h 98% 0in /  0.0mm
06:18 40.6 °F /  4.8 °C 41 °F /  5.0 °C 29.7in /  1005.0hPa SSW 1.1mph /  1.8km/h 7.6mph /  12.2km/h 98% 0in /  0.0mm
06:23 40.6 °F /  4.8 °C 41 °F /  5.0 °C 29.7in /  1005.0hPa Calm   6mph /  9.7km/h 98% 0in /  0.0mm
06:28 40.8 °F /  4.9 °C 41 °F /  5.0 °C 29.7in /  1005.0hPa SSW 5.4mph /  8.7km/h 6.5mph /  10.5km/h 98% 0in /  0.0mm
06:33 40.8 °F /  4.9 °C 41 °F /  5.0 °C 29.7in /  1005.0hPa South 2.7mph /  4.3km/h 7.2mph /  11.6km/h 98% 0in /  0.0mm
06:38 41 °F /  5.0 °C 41 °F /  5.0 °C 29.7in /  1005.0hPa SSW 3.1mph /  5.0km/h 7.6mph /  12.2km/h 98% 0in /  0.0mm
06:43 41 °F /  5.0 °C 41 °F /  5.0 °C 29.7in /  1005.0hPa South 6mph /  9.7km/h 7.6mph /  12.2km/h 98% 0in /  0.0mm
06:48 41 °F /  5.0 °C 41 °F /  5.0 °C 29.6in /  1003.9hPa SSW 4.9mph /  7.9km/h 8.1mph /  13.0km/h 98% 0in /  0.0mm
06:53 41 °F /  5.0 °C 41 °F /  5.0 °C 29.6in /  1003.9hPa South 6mph /  9.7km/h 8.1mph /  13.0km/h 98% 0in /  0.0mm
06:58 41.2 °F /  5.1 °C 41 °F /  5.0 °C 29.6in /  1003.9hPa SSW 4.9mph /  7.9km/h 9.2mph /  14.8km/h 98% 0in /  0.0mm
07:03 41.2 °F /  5.1 °C 41 °F /  5.0 °C 29.7in /  1005.0hPa SSW 3.8mph /  6.1km/h 9.2mph /  14.8km/h 98% 0in /  0.0mm
07:09 41.2 °F /  5.1 °C 41 °F /  5.0 °C 29.7in /  1005.0hPa South 4.9mph /  7.9km/h 7.2mph /  11.6km/h 98% 0in /  0.0mm
07:14 41.2 °F /  5.1 °C 41 °F /  5.0 °C 29.7in /  1005.0hPa South 4.7mph /  7.6km/h 7.2mph /  11.6km/h 98% 0in /  0.0mm
07:19 41.4 °F /  5.2 °C 41 °F /  5.0 °C 29.7in /  1005.0hPa South 4mph /  6.4km/h 6mph /  9.7km/h 98% 0in /  0.0mm
07:24 41.4 °F /  5.2 °C 41 °F /  5.0 °C 29.7in /  1005.0hPa Calm   6mph /  9.7km/h 98% 0in /  0.0mm
07:29 41.5 °F /  5.3 °C 42.8 °F /  6.0 °C 29.7in /  1005.0hPa Calm   5.8mph /  9.3km/h 98% 0in /  0.0mm
07:34 41.5 °F /  5.3 °C 42.8 °F /  6.0 °C 29.7in /  1005.0hPa South 4.3mph /  6.9km/h 5.4mph /  8.7km/h 98% 0in /  0.0mm
07:39 41.5 °F /  5.3 °C 42.8 °F /  6.0 °C 29.7in /  1005.0hPa Calm   5.4mph /  8.7km/h 98% 0in /  0.0mm
07:44 41.7 °F /  5.4 °C 42.8 °F /  6.0 °C 29.7in /  1006.0hPa SW 4.3mph /  6.9km/h 5.4mph /  8.7km/h 98% 0in /  0.0mm
07:49 41.9 °F /  5.5 °C 42.8 °F /  6.0 °C 29.7in /  1006.0hPa Calm   5.6mph /  9.0km/h 98% 0in /  0.0mm
07:54 42.1 °F /  5.6 °C 42.8 °F /  6.0 °C 29.7in /  1006.0hPa Calm   5.6mph /  9.0km/h 98% 0in /  0.0mm
07:59 42.1 °F /  5.6 °C 42.8 °F /  6.0 °C 29.7in /  1006.0hPa SW 4.7mph /  7.6km/h 5.6mph /  9.0km/h 98% 0in /  0.0mm
08:04 42.3 °F /  5.7 °C 42.8 °F /  6.0 °C 29.7in /  1006.0hPa SSW 7.6mph /  12.2km/h 7.6mph /  12.2km/h 98% 0in /  0.0mm
08:09 42.3 °F /  5.7 °C 42.8 °F /  6.0 °C 29.7in /  1006.0hPa SSW 7.6mph /  12.2km/h 7.6mph /  12.2km/h 98% 0in /  0.0mm
08:14 42.4 °F /  5.8 °C 42.8 °F /  6.0 °C 29.7in /  1006.0hPa SW 8.1mph /  13.0km/h 8.1mph /  13.0km/h 98% 0in /  0.0mm
08:19 42.4 °F /  5.8 °C 42.8 °F /  6.0 °C 29.7in /  1006.0hPa SSW 2.9mph /  4.7km/h 8.1mph /  13.0km/h 98% 0in /  0.0mm
08:24 42.4 °F /  5.8 °C 42.8 °F /  6.0 °C 29.7in /  1006.0hPa SSW 6.3mph /  10.1km/h 8.1mph /  13.0km/h 98% 0.01in /  0.3mm
08:29 42.6 °F /  5.9 °C 42.8 °F /  6.0 °C 29.8in /  1008.0hPa SW 3.4mph /  5.5km/h 6.3mph /  10.1km/h 98% 0.01in /  0.3mm
08:34 42.6 °F /  5.9 °C 42.8 °F /  6.0 °C 29.8in /  1008.0hPa Calm   6.3mph /  10.1km/h 98% 0.01in /  0.3mm
08:39 42.8 °F /  6.0 °C 42.8 °F /  6.0 °C 29.8in /  1008.0hPa SSW 3.4mph /  5.5km/h 5.4mph /  8.7km/h 98% 0.01in /  0.3mm
08:44 43 °F /  6.1 °C 42.8 °F /  6.0 °C 29.7in /  1007.0hPa South 3.4mph /  5.5km/h 4.9mph /  7.9km/h 98% 0.01in /  0.3mm
08:49 43 °F /  6.1 °C 42.8 °F /  6.0 °C 29.7in /  1007.0hPa Calm   5.8mph /  9.3km/h 98% 0.01in /  0.3mm
08:54 43.2 °F /  6.2 °C 42.8 °F /  6.0 °C 29.7in /  1007.0hPa SSW 6mph /  9.7km/h 6mph /  9.7km/h 98% 0.01in /  0.3mm
08:59 43.3 °F /  6.3 °C 42.8 °F /  6.0 °C 29.7in /  1007.0hPa SSW 4mph /  6.4km/h 6.5mph /  10.5km/h 98% 0.01in /  0.3mm
09:04 43.3 °F /  6.3 °C 42.8 °F /  6.0 °C 29.7in /  1007.0hPa SSW 2.5mph /  4.0km/h 6.5mph /  10.5km/h 98% 0.01in /  0.3mm
09:09 43.5 °F /  6.4 °C 42.8 °F /  6.0 °C 29.7in /  1007.0hPa SW 3.6mph /  5.8km/h 5.6mph /  9.0km/h 98% 0.01in /  0.3mm
09:14 43.5 °F /  6.4 °C 42.8 °F /  6.0 °C 29.7in /  1006.0hPa SSW 5.6mph /  9.0km/h 5.6mph /  9.0km/h 98% 0.01in /  0.3mm
09:19 43.7 °F /  6.5 °C 44.6 °F /  7.0 °C 29.7in /  1006.0hPa SSW 4.3mph /  6.9km/h 6.3mph /  10.1km/h 98% 0in /  0.0mm
09:24 43.9 °F /  6.6 °C 44.6 °F /  7.0 °C 29.7in /  1006.0hPa SSW 4.3mph /  6.9km/h 6.3mph /  10.1km/h 98% 0in /  0.0mm
09:29 44.1 °F /  6.7 °C 44.6 °F /  7.0 °C 29.7in /  1007.0hPa SW 3.4mph /  5.5km/h 6.3mph /  10.1km/h 98% 0in /  0.0mm
09:34 44.2 °F /  6.8 °C 44.6 °F /  7.0 °C 29.7in /  1007.0hPa Calm   6.3mph /  10.1km/h 98% 0in /  0.0mm
09:40 44.4 °F /  6.9 °C 44.6 °F /  7.0 °C 29.7in /  1007.0hPa Calm   6.9mph /  11.1km/h 98% 0in /  0.0mm
09:45 44.6 °F /  7.0 °C 44.6 °F /  7.0 °C 29.8in /  1008.0hPa Calm   6.9mph /  11.1km/h 98% 0in /  0.0mm
09:50 44.8 °F /  7.1 °C 44.6 °F /  7.0 °C 29.8in /  1008.0hPa SSW 3.4mph /  5.5km/h 5.4mph /  8.7km/h 98% 0in /  0.0mm
09:55 45.1 °F /  7.3 °C 44.6 °F /  7.0 °C 29.8in /  1008.0hPa South 2.2mph /  3.5km/h 6.3mph /  10.1km/h 98% 0in /  0.0mm
10:00 45.1 °F /  7.3 °C 44.6 °F /  7.0 °C 29.8in /  1008.0hPa SW 1.3mph /  2.1km/h 6.3mph /  10.1km/h 98% 0in /  0.0mm
10:05 45.1 °F /  7.3 °C 44.6 °F /  7.0 °C 29.8in /  1008.0hPa SSW 5.6mph /  9.0km/h 6mph /  9.7km/h 98% 0in /  0.0mm
10:10 45.5 °F /  7.5 °C 46.4 °F /  8.0 °C 29.8in /  1008.0hPa WSW 5.6mph /  9.0km/h 5.6mph /  9.0km/h 98% 0in /  0.0mm
10:15 45.7 °F /  7.6 °C 46.4 °F /  8.0 °C 29.8in /  1008.0hPa SSW 5.8mph /  9.3km/h 8.7mph /  14.0km/h 98% 0in /  0.0mm
10:20 46 °F /  7.8 °C 46.4 °F /  8.0 °C 29.8in /  1008.0hPa Calm   8.7mph /  14.0km/h 98% 0in /  0.0mm
10:25 46.2 °F /  7.9 °C 46.4 °F /  8.0 °C 29.8in /  1008.0hPa SW 5.4mph /  8.7km/h 8.1mph /  13.0km/h 98% 0in /  0.0mm
10:30 46.4 °F /  8.0 °C 46.4 °F /  8.0 °C 29.8in /  1009.0hPa SW 6.3mph /  10.1km/h 7.6mph /  12.2km/h 98% 0in /  0.0mm
10:35 46.8 °F /  8.2 °C 46.4 °F /  8.0 °C 29.8in /  1009.0hPa WSW 6mph /  9.7km/h 8.1mph /  13.0km/h 98% 0in /  0.0mm
10:40 47.1 °F /  8.4 °C 48.2 °F /  9.0 °C 29.8in /  1009.0hPa WSW 5.4mph /  8.7km/h 8.1mph /  13.0km/h 98% 0in /  0.0mm
10:45 47.1 °F /  8.4 °C 48.2 °F /  9.0 °C 29.8in /  1009.0hPa WSW 5.4mph /  8.7km/h 8.1mph /  13.0km/h 98% 0in /  0.0mm
10:47 47.1 °F /  8.4 °C 48.2 °F /  9.0 °C 29.8in /  1009.0hPa SW 1.6mph /  2.6km/h 8.1mph /  13.0km/h 98% 0in /  0.0mm
10:52 47.3 °F /  8.5 °C 48.2 °F /  9.0 °C 29.8in /  1009.0hPa SSW 5.8mph /  9.3km/h 8.1mph /  13.0km/h 98% 0in /  0.0mm
10:57 47.7 °F /  8.7 °C 48.2 °F /  9.0 °C 29.8in /  1009.0hPa WSW 5.4mph /  8.7km/h 8.5mph /  13.7km/h 98% 0in /  0.0mm
11:02 48 °F /  8.9 °C 48.2 °F /  9.0 °C 29.8in /  1008.0hPa WSW 5.6mph /  9.0km/h 10.5mph /  16.9km/h 98% 0in /  0.0mm
11:07 48.4 °F /  9.1 °C 48.2 °F /  9.0 °C 29.8in /  1008.0hPa SW 7.8mph /  12.6km/h 10.5mph /  16.9km/h 98% 0in /  0.0mm
11:12 48.7 °F /  9.3 °C 48.2 °F /  9.0 °C 29.8in /  1008.0hPa SW 8.5mph /  13.7km/h 10.1mph /  16.3km/h 98% 0in /  0.0mm
11:17 49.1 °F /  9.5 °C 50 °F /  10.0 °C 29.8in /  1009.0hPa WSW 7.4mph /  11.9km/h 10.1mph /  16.3km/h 98% 0in /  0.0mm
11:22 50.2 °F /  10.1 °C 50 °F /  10.0 °C 29.8in /  1009.0hPa SW 6mph /  9.7km/h 10.1mph /  16.3km/h 98% 0in /  0.0mm
11:27 50.9 °F /  10.5 °C 51.8 °F /  11.0 °C 29.8in /  1009.0hPa SSW 5.8mph /  9.3km/h 8.7mph /  14.0km/h 98% 0in /  0.0mm
11:32 51.1 °F /  10.6 °C 51.8 °F /  11.0 °C 29.8in /  1009.0hPa WSW 8.5mph /  13.7km/h 11mph /  17.7km/h 98% 0in /  0.0mm
11:37 51.3 °F /  10.7 °C 51.8 °F /  11.0 °C 29.8in /  1009.0hPa WSW 10.1mph /  16.3km/h 11mph /  17.7km/h 98% 0in /  0.0mm
11:42 51.6 °F /  10.9 °C 51.8 °F /  11.0 °C 29.8in /  1009.0hPa WSW 7.6mph /  12.2km/h 13.2mph /  21.2km/h 98% 0in /  0.0mm
11:47 51.8 °F /  11.0 °C 51.8 °F /  11.0 °C 29.8in /  1009.0hPa WSW 6.3mph /  10.1km/h 13.2mph /  21.2km/h 98% 0in /  0.0mm
11:52 52 °F /  11.1 °C 51.8 °F /  11.0 °C 29.8in /  1009.0hPa WSW 7.4mph /  11.9km/h 13mph /  20.9km/h 98% 0in /  0.0mm
11:57 52.2 °F /  11.2 °C 51.8 °F /  11.0 °C 29.8in /  1009.0hPa WSW 9.6mph /  15.4km/h 11mph /  17.7km/h 98% 0in /  0.0mm
12:02 52.3 °F /  11.3 °C 51.8 °F /  11.0 °C 29.8in /  1009.0hPa WSW 10.5mph /  16.9km/h 13.2mph /  21.2km/h 98% 0in /  0.0mm
12:07 52.5 °F /  11.4 °C 51.8 °F /  11.0 °C 29.8in /  1009.0hPa SW 11mph /  17.7km/h 13.2mph /  21.2km/h 98% 0in /  0.0mm
12:12 53.1 °F /  11.7 °C 53.6 °F /  12.0 °C 29.8in /  1009.0hPa WSW 8.7mph /  14.0km/h 12.8mph /  20.6km/h 98% 0in /  0.0mm
12:18 53.2 °F /  11.8 °C 51.8 °F /  11.0 °C 29.8in /  1009.0hPa West 8.1mph /  13.0km/h 12.5mph /  20.1km/h 97% 0in /  0.0mm
12:23 53.4 °F /  11.9 °C 51.8 °F /  11.0 °C 29.8in /  1009.0hPa WSW 14.1mph /  22.7km/h 14.1mph /  22.7km/h 95% 0in /  0.0mm
12:28 53.8 °F /  12.1 °C 51.8 °F /  11.0 °C 29.8in /  1009.0hPa WSW 10.7mph /  17.2km/h 15.4mph /  24.8km/h 94% 0in /  0.0mm
12:33 54 °F /  12.2 °C 51.8 °F /  11.0 °C 29.8in /  1009.0hPa West 11.9mph /  19.1km/h 15.4mph /  24.8km/h 93% 0in /  0.0mm
12:38 53.8 °F /  12.1 °C 51.8 °F /  11.0 °C 29.8in /  1009.0hPa WSW 10.3mph /  16.6km/h 15.4mph /  24.8km/h 91% 0in /  0.0mm
12:43 53.6 °F /  12.0 °C 51.8 °F /  11.0 °C 29.8in /  1009.0hPa WSW 11.2mph /  18.0km/h 15.4mph /  24.8km/h 89% 0in /  0.0mm
12:48 53.4 °F /  11.9 °C 50 °F /  10.0 °C 29.8in /  1010.0hPa West 10.1mph /  16.3km/h 16.6mph /  26.7km/h 87% 0in /  0.0mm
12:53 53.6 °F /  12.0 °C 50 °F /  10.0 °C 29.8in /  1010.0hPa West 11mph /  17.7km/h 17mph /  27.4km/h 86% 0in /  0.0mm
12:58 53.6 °F /  12.0 °C 50 °F /  10.0 °C 29.8in /  1010.0hPa West 10.5mph /  16.9km/h 17mph /  27.4km/h 85% 0in /  0.0mm
13:03 53.8 °F /  12.1 °C 50 °F /  10.0 °C 29.8in /  1010.0hPa WSW 12.8mph /  20.6km/h 15.2mph /  24.5km/h 85% 0in /  0.0mm
13:08 53.8 °F /  12.1 °C 48.2 °F /  9.0 °C 29.8in /  1010.0hPa WSW 15.4mph /  24.8km/h 17.2mph /  27.7km/h 83% 0in /  0.0mm
13:13 53.8 °F /  12.1 °C 48.2 °F /  9.0 °C 29.8in /  1010.0hPa WSW 8.1mph /  13.0km/h 17.2mph /  27.7km/h 81% 0in /  0.0mm
13:18 53.8 °F /  12.1 °C 48.2 °F /  9.0 °C 29.8in /  1010.0hPa WSW 12.8mph /  20.6km/h 16.8mph /  27.0km/h 83% 0in /  0.0mm
13:23 54 °F /  12.2 °C 48.2 °F /  9.0 °C 29.8in /  1010.0hPa West 12.3mph /  19.8km/h 17.4mph /  28.0km/h 80% 0in /  0.0mm
13:28 54 °F /  12.2 °C 48.2 °F /  9.0 °C 29.8in /  1010.0hPa WSW 8.7mph /  14.0km/h 17.4mph /  28.0km/h 79% 0in /  0.0mm
13:33 53.8 °F /  12.1 °C 48.2 °F /  9.0 °C 29.8in /  1010.0hPa WSW 9.4mph /  15.1km/h 15.4mph /  24.8km/h 78% 0in /  0.0mm
13:38 54.1 °F /  12.3 °C 48.2 °F /  9.0 °C 29.8in /  1010.0hPa West 8.5mph /  13.7km/h 13.9mph /  22.4km/h 79% 0in /  0.0mm
13:43 54.3 °F /  12.4 °C 48.2 °F /  9.0 °C 29.8in /  1010.0hPa West 10.3mph /  16.6km/h 13mph /  20.9km/h 78% 0in /  0.0mm
13:48 54.5 °F /  12.5 °C 48.2 °F /  9.0 °C 29.9in /  1011.1hPa West 12.3mph /  19.8km/h 14.8mph /  23.8km/h 78% 0in /  0.0mm
13:53 54.5 °F /  12.5 °C 48.2 °F /  9.0 °C 29.9in /  1011.1hPa WSW 8.5mph /  13.7km/h 14.8mph /  23.8km/h 76% 0in /  0.0mm
13:58 54.5 °F /  12.5 °C 48.2 °F /  9.0 °C 29.9in /  1011.1hPa WSW 10.3mph /  16.6km/h 15.9mph /  25.6km/h 77% 0in /  0.0mm
14:03 54.5 °F /  12.5 °C 48.2 °F /  9.0 °C 29.9in /  1011.1hPa WSW 8.5mph /  13.7km/h 15.9mph /  25.6km/h 76% 0in /  0.0mm
14:08 54.5 °F /  12.5 °C 48.2 °F /  9.0 °C 29.9in /  1011.1hPa West 15.4mph /  24.8km/h 15.9mph /  25.6km/h 74% 0in /  0.0mm
14:13 54.3 °F /  12.4 °C 48.2 °F /  9.0 °C 29.9in /  1011.1hPa WSW 9.6mph /  15.4km/h 15.9mph /  25.6km/h 75% 0in /  0.0mm
14:18 54.5 °F /  12.5 °C 48.2 °F /  9.0 °C 29.9in /  1011.1hPa WSW 14.8mph /  23.8km/h 15.4mph /  24.8km/h 77% 0in /  0.0mm
14:24 54.7 °F /  12.6 °C 48.2 °F /  9.0 °C 29.9in /  1011.1hPa West 8.7mph /  14.0km/h 14.8mph /  23.8km/h 76% 0in /  0.0mm
14:29 54.7 °F /  12.6 °C 48.2 °F /  9.0 °C 29.9in /  1011.1hPa WSW 10.5mph /  16.9km/h 13.2mph /  21.2km/h 75% 0in /  0.0mm
14:34 54.9 °F /  12.7 °C 48.2 °F /  9.0 °C 29.9in /  1011.1hPa WSW 6.3mph /  10.1km/h 13.2mph /  21.2km/h 75% 0in /  0.0mm
14:39 55 °F /  12.8 °C 48.2 °F /  9.0 °C 29.9in /  1011.1hPa WSW 7.8mph /  12.6km/h 15.4mph /  24.8km/h 74% 0in /  0.0mm
14:44 54.9 °F /  12.7 °C 46.4 °F /  8.0 °C 29.9in /  1011.1hPa West 12.1mph /  19.5km/h 16.6mph /  26.7km/h 73% 0in /  0.0mm
14:49 54.9 °F /  12.7 °C 46.4 °F /  8.0 °C 29.9in /  1011.1hPa West 10.3mph /  16.6km/h 17.4mph /  28.0km/h 70% 0in /  0.0mm
14:54 55 °F /  12.8 °C 46.4 °F /  8.0 °C 29.9in /  1011.1hPa West 13.2mph /  21.2km/h 17.4mph /  28.0km/h 70% 0in /  0.0mm
14:59 54.9 °F /  12.7 °C 44.6 °F /  7.0 °C 29.9in /  1011.1hPa WSW 12.3mph /  19.8km/h 20.6mph /  33.1km/h 68% 0in /  0.0mm
15:04 55 °F /  12.8 °C 46.4 °F /  8.0 °C 29.9in /  1011.1hPa WNW 10.7mph /  17.2km/h 20.6mph /  33.1km/h 70% 0in /  0.0mm
15:09 55 °F /  12.8 °C 46.4 °F /  8.0 °C 29.9in /  1011.1hPa WSW 12.3mph /  19.8km/h 14.8mph /  23.8km/h 69% 0in /  0.0mm
15:14 55 °F /  12.8 °C 44.6 °F /  7.0 °C 29.9in /  1011.1hPa West 9.8mph /  15.8km/h 17mph /  27.4km/h 67% 0in /  0.0mm
15:19 55.2 °F /  12.9 °C 44.6 °F /  7.0 °C 29.9in /  1011.1hPa WSW 10.3mph /  16.6km/h 17mph /  27.4km/h 64% 0in /  0.0mm
15:24 55.6 °F /  13.1 °C 44.6 °F /  7.0 °C 29.9in /  1011.1hPa WSW 15.7mph /  25.3km/h 20.1mph /  32.3km/h 65% 0in /  0.0mm
15:29 55.4 °F /  13.0 °C 42.8 °F /  6.0 °C 29.9in /  1011.1hPa West 11.4mph /  18.3km/h 20.1mph /  32.3km/h 63% 0in /  0.0mm
15:34 55 °F /  12.8 °C 44.6 °F /  7.0 °C 29.9in /  1011.1hPa WSW 12.5mph /  20.1km/h 19.2mph /  30.9km/h 64% 0in /  0.0mm
15:39 54.5 °F /  12.5 °C 42.8 °F /  6.0 °C 29.9in /  1011.1hPa West 14.8mph /  23.8km/h 18.1mph /  29.1km/h 64% 0in /  0.0mm
15:44 54 °F /  12.2 °C 42.8 °F /  6.0 °C 29.9in /  1012.1hPa West 12.5mph /  20.1km/h 18.1mph /  29.1km/h 64% 0in /  0.0mm
15:49 53.2 °F /  11.8 °C 42.8 °F /  6.0 °C 29.9in /  1012.1hPa WSW 11.2mph /  18.0km/h 18.6mph /  29.9km/h 65% 0in /  0.0mm
15:54 53.1 °F /  11.7 °C 42.8 °F /  6.0 °C 29.9in /  1012.1hPa West 10.5mph /  16.9km/h 18.6mph /  29.9km/h 67% 0in /  0.0mm
15:59 53.2 °F /  11.8 °C 42.8 °F /  6.0 °C 29.9in /  1013.1hPa West 6.3mph /  10.1km/h 15.2mph /  24.5km/h 68% 0in /  0.0mm
16:04 53.1 °F /  11.7 °C 42.8 °F /  6.0 °C 29.9in /  1013.1hPa West 5.6mph /  9.0km/h 13.2mph /  21.2km/h 68% 0in /  0.0mm
16:09 53.6 °F /  12.0 °C 44.6 °F /  7.0 °C 29.9in /  1013.1hPa WSW 5.8mph /  9.3km/h 12.5mph /  20.1km/h 68% 0in /  0.0mm
16:14 53.8 °F /  12.1 °C 42.8 °F /  6.0 °C 29.9in /  1013.1hPa WNW 5.6mph /  9.0km/h 12.5mph /  20.1km/h 67% 0in /  0.0mm
16:19 53.6 °F /  12.0 °C 42.8 °F /  6.0 °C 29.9in /  1013.1hPa WNW 4mph /  6.4km/h 8.7mph /  14.0km/h 67% 0in /  0.0mm
16:24 52.9 °F /  11.6 °C 42.8 °F /  6.0 °C 29.9in /  1013.1hPa West 6mph /  9.7km/h 10.7mph /  17.2km/h 66% 0in /  0.0mm
16:29 52.2 °F /  11.2 °C 42.8 °F /  6.0 °C 29.9in /  1013.1hPa West 9.8mph /  15.8km/h 10.7mph /  17.2km/h 67% 0in /  0.0mm
16:34 51.8 °F /  11.0 °C 42.8 °F /  6.0 °C 29.9in /  1013.1hPa West 6.5mph /  10.5km/h 10.5mph /  16.9km/h 68% 0in /  0.0mm
16:39 51.4 °F /  10.8 °C 41 °F /  5.0 °C 29.9in /  1013.1hPa WNW 2.7mph /  4.3km/h 10.5mph /  16.9km/h 69% 0in /  0.0mm
16:44 50.9 °F /  10.5 °C 42.8 °F /  6.0 °C 29.9in /  1013.1hPa West 10.7mph /  17.2km/h 10.7mph /  17.2km/h 70% 0in /  0.0mm
16:49 50.5 °F /  10.3 °C 42.8 °F /  6.0 °C 29.9in /  1013.1hPa West 6.3mph /  10.1km/h 10.7mph /  17.2km/h 71% 0in /  0.0mm
16:54 50.2 °F /  10.1 °C 41 °F /  5.0 °C 29.9in /  1013.1hPa WSW 6mph /  9.7km/h 10.5mph /  16.9km/h 71% 0in /  0.0mm
17:00 50 °F /  10.0 °C 42.8 °F /  6.0 °C 29.9in /  1013.1hPa WSW 6mph /  9.7km/h 10.5mph /  16.9km/h 72% 0in /  0.0mm
17:05 49.8 °F /  9.9 °C 42.8 °F /  6.0 °C 29.9in /  1013.1hPa West 6mph /  9.7km/h 9.8mph /  15.8km/h 72% 0in /  0.0mm
17:10 49.5 °F /  9.7 °C 41 °F /  5.0 °C 29.9in /  1013.1hPa West 6.5mph /  10.5km/h 11mph /  17.7km/h 72% 0in /  0.0mm
17:15 49.5 °F /  9.7 °C 41 °F /  5.0 °C 29.9in /  1013.1hPa West 5.8mph /  9.3km/h 11mph /  17.7km/h 72% 0in /  0.0mm
17:20 49.5 °F /  9.7 °C 41 °F /  5.0 °C 29.9in /  1013.1hPa WSW 5.8mph /  9.3km/h 10.7mph /  17.2km/h 71% 0in /  0.0mm
17:25 49.5 °F /  9.7 °C 41 °F /  5.0 °C 29.9in /  1013.1hPa West 8.1mph /  13.0km/h 10.5mph /  16.9km/h 70% 0in /  0.0mm
17:30 49.3 °F /  9.6 °C 39.2 °F /  4.0 °C 29.9in /  1014.1hPa West 2.9mph /  4.7km/h 8.9mph /  14.3km/h 69% 0in /  0.0mm
17:31 49.3 °F /  9.6 °C 39.2 °F /  4.0 °C 29.9in /  1014.1hPa West 6.3mph /  10.1km/h 8.9mph /  14.3km/h 69% 0in /  0.0mm
17:36 49.1 °F /  9.5 °C 39.2 °F /  4.0 °C 29.9in /  1014.1hPa WSW 4mph /  6.4km/h 8.5mph /  13.7km/h 69% 0in /  0.0mm
17:41 48.7 °F /  9.3 °C 39.2 °F /  4.0 °C 29.9in /  1014.1hPa West 4.9mph /  7.9km/h 8.1mph /  13.0km/h 69% 0in /  0.0mm
17:47 48.4 °F /  9.1 °C 39.2 °F /  4.0 °C 29.9in /  1014.1hPa West 5.4mph /  8.7km/h 6.5mph /  10.5km/h 69% 0in /  0.0mm
17:52 48 °F /  8.9 °C 39.2 °F /  4.0 °C 29.9in /  1014.1hPa West 1.3mph /  2.1km/h 6.3mph /  10.1km/h 69% 0in /  0.0mm
17:57 47.3 °F /  8.5 °C 39.2 °F /  4.0 °C 29.9in /  1014.1hPa Calm   5.4mph /  8.7km/h 70% 0in /  0.0mm
18:02 46.8 °F /  8.2 °C 37.4 °F /  3.0 °C 29.9in /  1014.1hPa Calm   4mph /  6.4km/h 71% 0in /  0.0mm
18:07 46.6 °F /  8.1 °C 39.2 °F /  4.0 °C 29.9in /  1014.1hPa WSW 2.2mph /  3.5km/h 4.7mph /  7.6km/h 72% 0in /  0.0mm
18:12 46.2 °F /  7.9 °C 37.4 °F /  3.0 °C 29.9in /  1014.1hPa West 3.8mph /  6.1km/h 4.9mph /  7.9km/h 72% 0in /  0.0mm
18:17 45.9 °F /  7.7 °C 37.4 °F /  3.0 °C 30in /  1015.1hPa Calm   4.9mph /  7.9km/h 73% 0in /  0.0mm
18:22 45.5 °F /  7.5 °C 37.4 °F /  3.0 °C 30in /  1015.1hPa West 3.8mph /  6.1km/h 5.4mph /  8.7km/h 74% 0in /  0.0mm
18:27 45.3 °F /  7.4 °C 37.4 °F /  3.0 °C 30in /  1015.1hPa West 0.9mph /  1.4km/h 5.8mph /  9.3km/h 75% 0in /  0.0mm
18:32 45 °F /  7.2 °C 37.4 °F /  3.0 °C 30in /  1015.1hPa West 3.4mph /  5.5km/h 6mph /  9.7km/h 75% 0in /  0.0mm
18:37 44.6 °F /  7.0 °C 37.4 °F /  3.0 °C 30in /  1015.1hPa West 2.2mph /  3.5km/h 6mph /  9.7km/h 76% 0in /  0.0mm
18:42 44.2 °F /  6.8 °C 37.4 °F /  3.0 °C 30in /  1015.1hPa Calm   4.9mph /  7.9km/h 77% 0in /  0.0mm
18:47 44.1 °F /  6.7 °C 37.4 °F /  3.0 °C 30in /  1016.1hPa Calm   4.7mph /  7.6km/h 77% 0in /  0.0mm
18:52 43.7 °F /  6.5 °C 37.4 °F /  3.0 °C 30in /  1016.1hPa Calm   4.3mph /  6.9km/h 77% 0in /  0.0mm
18:57 43.5 °F /  6.4 °C 37.4 °F /  3.0 °C 30in /  1016.1hPa Calm   4.3mph /  6.9km/h 78% 0in /  0.0mm
19:02 43.2 °F /  6.2 °C 37.4 °F /  3.0 °C 29.9in /  1014.1hPa Calm   4mph /  6.4km/h 79% 0in /  0.0mm
19:07 42.8 °F /  6.0 °C 37.4 °F /  3.0 °C 29.9in /  1014.1hPa Calm   4mph /  6.4km/h 79% 0in /  0.0mm
19:12 42.8 °F /  6.0 °C 37.4 °F /  3.0 °C 29.9in /  1014.1hPa Calm   3.1mph /  5.0km/h 80% 0in /  0.0mm
19:17 42.6 °F /  5.9 °C 37.4 °F /  3.0 °C 30in /  1015.1hPa West 2.5mph /  4.0km/h 5.4mph /  8.7km/h 81% 0in /  0.0mm
19:23 42.4 °F /  5.8 °C 37.4 °F /  3.0 °C 30in /  1015.1hPa WSW 2.2mph /  3.5km/h 5.4mph /  8.7km/h 81% 0in /  0.0mm
19:28 42.3 °F /  5.7 °C 37.4 °F /  3.0 °C 30in /  1015.1hPa WSW 3.4mph /  5.5km/h 4.5mph /  7.2km/h 82% 0in /  0.0mm
19:33 42.3 °F /  5.7 °C 37.4 °F /  3.0 °C 30in /  1015.1hPa WSW 2.7mph /  4.3km/h 4.5mph /  7.2km/h 82% 0in /  0.0mm
19:38 42.1 °F /  5.6 °C 37.4 °F /  3.0 °C 30in /  1015.1hPa West 2.5mph /  4.0km/h 4.3mph /  6.9km/h 83% 0in /  0.0mm
19:43 41.9 °F /  5.5 °C 37.4 °F /  3.0 °C 30in /  1015.1hPa Calm   4.3mph /  6.9km/h 83% 0in /  0.0mm
19:48 41.5 °F /  5.3 °C 37.4 °F /  3.0 °C 30in /  1016.1hPa Calm   2.7mph /  4.3km/h 83% 0in /  0.0mm
19:53 41.2 °F /  5.1 °C 37.4 °F /  3.0 °C 30in /  1016.1hPa Calm   2.7mph /  4.3km/h 83% 0in /  0.0mm
19:58 41 °F /  5.0 °C 37.4 °F /  3.0 °C 30in /  1016.1hPa Calm   0.9mph /  1.4km/h 83% 0in /  0.0mm
20:03 40.8 °F /  4.9 °C 37.4 °F /  3.0 °C 30in /  1016.1hPa West 1.1mph /  1.8km/h 2.5mph /  4.0km/h 84% 0in /  0.0mm
20:08 40.8 °F /  4.9 °C 37.4 °F /  3.0 °C 30in /  1016.1hPa Calm   2.7mph /  4.3km/h 85% 0in /  0.0mm
20:13 40.8 °F /  4.9 °C 37.4 °F /  3.0 °C 30in /  1016.1hPa West 2.2mph /  3.5km/h 3.8mph /  6.1km/h 86% 0in /  0.0mm
20:18 40.6 °F /  4.8 °C 37.4 °F /  3.0 °C 30in /  1016.1hPa Calm   3.8mph /  6.1km/h 86% 0in /  0.0mm
20:23 40.3 °F /  4.6 °C 37.4 °F /  3.0 °C 30in /  1016.1hPa Calm   2.2mph /  3.5km/h 85% 0in /  0.0mm
20:28 39.7 °F /  4.3 °C 35.6 °F /  2.0 °C 30in /  1016.1hPa Calm     85% 0in /  0.0mm
20:33 39.4 °F /  4.1 °C 35.6 °F /  2.0 °C 30in /  1016.8hPa Calm     85% 0in /  0.0mm
20:38 39 °F /  3.9 °C 35.6 °F /  2.0 °C 30in /  1016.8hPa Calm     85% 0in /  0.0mm
20:43 38.7 °F /  3.7 °C 35.6 °F /  2.0 °C 30in /  1016.8hPa Calm     86% 0in /  0.0mm
20:48 38.5 °F /  3.6 °C 35.6 °F /  2.0 °C 30in /  1016.8hPa Calm     86% 0in /  0.0mm
20:53 38.3 °F /  3.5 °C 35.6 °F /  2.0 °C 30in /  1016.8hPa Calm     87% 0in /  0.0mm
20:59 38.3 °F /  3.5 °C 35.6 °F /  2.0 °C 30in /  1016.8hPa Calm     87% 0in /  0.0mm
21:04 38.3 °F /  3.5 °C 35.6 °F /  2.0 °C 30in /  1016.8hPa Calm     88% 0in /  0.0mm
21:06 38.3 °F /  3.5 °C 35.6 °F /  2.0 °C 30in /  1016.8hPa Calm     88% 0in /  0.0mm
21:11 38.5 °F /  3.6 °C 35.6 °F /  2.0 °C 30in /  1016.8hPa Calm     89% 0in /  0.0mm
21:16 38.5 °F /  3.6 °C 35.6 °F /  2.0 °C 30in /  1016.8hPa Calm     89% 0in /  0.0mm
21:21 38.3 °F /  3.5 °C 35.6 °F /  2.0 °C 30in /  1016.8hPa Calm     90% 0in /  0.0mm
21:26 37.9 °F /  3.3 °C 35.6 °F /  2.0 °C 30in /  1016.8hPa Calm     90% 0in /  0.0mm
21:31 37.8 °F /  3.2 °C 35.6 °F /  2.0 °C 30in /  1016.8hPa Calm     89% 0in /  0.0mm
21:36 37.9 °F /  3.3 °C 35.6 °F /  2.0 °C 30in /  1016.8hPa Calm   3.6mph /  5.8km/h 91% 0in /  0.0mm
21:41 38.1 °F /  3.4 °C 35.6 °F /  2.0 °C 30in /  1016.8hPa Calm   3.6mph /  5.8km/h 91% 0in /  0.0mm
21:46 38.3 °F /  3.5 °C 37.4 °F /  3.0 °C 30in /  1016.8hPa Calm   4.5mph /  7.2km/h 92% 0in /  0.0mm
21:51 38.5 °F /  3.6 °C 37.4 °F /  3.0 °C 30in /  1016.8hPa West 0.9mph /  1.4km/h 4.5mph /  7.2km/h 92% 0in /  0.0mm
21:56 38.5 °F /  3.6 °C 37.4 °F /  3.0 °C 30in /  1016.8hPa West 2.5mph /  4.0km/h 4.3mph /  6.9km/h 93% 0in /  0.0mm
22:01 38.7 °F /  3.7 °C 37.4 °F /  3.0 °C 30in /  1016.8hPa Calm   5.4mph /  8.7km/h 93% 0in /  0.0mm
22:06 38.5 °F /  3.6 °C 37.4 °F /  3.0 °C 30in /  1016.8hPa Calm   5.4mph /  8.7km/h 93% 0in /  0.0mm
22:11 38.5 °F /  3.6 °C 37.4 °F /  3.0 °C 30in /  1016.8hPa Calm   4.3mph /  6.9km/h 93% 0in /  0.0mm
22:17 38.3 °F /  3.5 °C 37.4 °F /  3.0 °C 30in /  1016.8hPa West 3.6mph /  5.8km/h 5.4mph /  8.7km/h 93% 0in /  0.0mm
22:22 38.3 °F /  3.5 °C 37.4 °F /  3.0 °C 30in /  1016.8hPa West 4.9mph /  7.9km/h 5.4mph /  8.7km/h 93% 0in /  0.0mm
22:27 38.1 °F /  3.4 °C 37.4 °F /  3.0 °C 30in /  1016.8hPa West 3.6mph /  5.8km/h 4.9mph /  7.9km/h 94% 0in /  0.0mm
22:32 38.1 °F /  3.4 °C 37.4 °F /  3.0 °C 30.1in /  1018.2hPa Calm   4.9mph /  7.9km/h 94% 0in /  0.0mm
22:37 37.9 °F /  3.3 °C 37.4 °F /  3.0 °C 30.1in /  1018.2hPa Calm   3.6mph /  5.8km/h 94% 0in /  0.0mm
22:42 37.8 °F /  3.2 °C 37.4 °F /  3.0 °C 30.1in /  1018.2hPa Calm     94% 0in /  0.0mm
22:47 37.8 °F /  3.2 °C 37.4 °F /  3.0 °C 30.1in /  1018.2hPa Calm   3.8mph /  6.1km/h 94% 0in /  0.0mm
22:52 37.9 °F /  3.3 °C 37.4 °F /  3.0 °C 30.1in /  1018.2hPa Calm   3.8mph /  6.1km/h 94% 0in /  0.0mm
22:57 37.8 °F /  3.2 °C 37.4 °F /  3.0 °C 30.1in /  1018.2hPa Calm     95% 0in /  0.0mm
23:02 37 °F /  2.8 °C 35.6 °F /  2.0 °C 30.1in /  1018.2hPa Calm     94% 0in /  0.0mm
23:07 36.9 °F /  2.7 °C 35.6 °F /  2.0 °C 30.1in /  1018.2hPa Calm   4.7mph /  7.6km/h 94% 0in /  0.0mm
23:12 37 °F /  2.8 °C 37.4 °F /  3.0 °C 30.1in /  1018.2hPa Calm   4.7mph /  7.6km/h 95% 0in /  0.0mm
23:17 37.2 °F /  2.9 °C 37.4 °F /  3.0 °C 30.1in /  1018.8hPa Calm   4mph /  6.4km/h 95% 0in /  0.0mm
23:22 37 °F /  2.8 °C 37.4 °F /  3.0 °C 30.1in /  1018.8hPa Calm     96% 0in /  0.0mm
23:27 36.9 °F /  2.7 °C 35.6 °F /  2.0 °C 30.1in /  1018.8hPa Calm     95% 0in /  0.0mm
23:32 37.2 °F /  2.9 °C 37.4 °F /  3.0 °C 30.1in /  1018.8hPa WSW 3.8mph /  6.1km/h 3.8mph /  6.1km/h 96% 0in /  0.0mm
23:37 37.2 °F /  2.9 °C 37.4 °F /  3.0 °C 30.1in /  1018.8hPa Calm   4.3mph /  6.9km/h 96% 0in /  0.0mm
23:42 37.2 °F /  2.9 °C 37.4 °F /  3.0 °C 30.1in /  1018.8hPa Calm   4.3mph /  6.9km/h 96% 0in /  0.0mm
23:47 37.4 °F /  3.0 °C 37.4 °F /  3.0 °C 30.1in /  1018.8hPa Calm     96% 0in /  0.0mm
23:52 37.4 °F /  3.0 °C 37.4 °F /  3.0 °C 30.1in /  1018.8hPa Calm     96% 0in /  0.0mm
23:57 37 °F /  2.8 °C 37.4 °F /  3.0 °C 30.1in /  1018.8hPa West 2.2mph /  3.5km/h 2.2mph /  3.5km/h 96% 0in /  0.0mm
Données Historique de Météo Turbie

Mise a jour : 18/06/2018 01:27:12
Généré par Cumulus 1.9.4 (1099)